sensor_id;sensor_type;location;lat;lon;timestamp;temperature;humidity
38784;DHT22;24531;45.502;12.238;2023-08-31T00:01:09;22.50;99.60
38784;DHT22;24531;45.502;12.238;2023-08-31T00:03:35;22.50;99.60
38784;DHT22;24531;45.502;12.238;2023-08-31T00:06:03;22.50;99.70
38784;DHT22;24531;45.502;12.238;2023-08-31T00:08:29;22.50;99.70
38784;DHT22;24531;45.502;12.238;2023-08-31T00:10:59;22.50;99.80
38784;DHT22;24531;45.502;12.238;2023-08-31T00:13:25;22.50;99.90
38784;DHT22;24531;45.502;12.238;2023-08-31T00:15:54;22.50;99.90
38784;DHT22;24531;45.502;12.238;2023-08-31T00:18:21;22.50;99.90
38784;DHT22;24531;45.502;12.238;2023-08-31T00:20:46;22.50;99.90
38784;DHT22;24531;45.502;12.238;2023-08-31T00:23:12;22.50;99.90
38784;DHT22;24531;45.502;12.238;2023-08-31T00:25:38;22.50;99.90
38784;DHT22;24531;45.502;12.238;2023-08-31T00:28:04;22.50;99.90
38784;DHT22;24531;45.502;12.238;2023-08-31T00:30:31;22.50;99.90
38784;DHT22;24531;45.502;12.238;2023-08-31T00:32:58;22.50;99.90
38784;DHT22;24531;45.502;12.238;2023-08-31T00:35:25;22.50;99.90
38784;DHT22;24531;45.502;12.238;2023-08-31T00:37:52;22.50;99.90
38784;DHT22;24531;45.502;12.238;2023-08-31T00:40:23;22.50;99.90
38784;DHT22;24531;45.502;12.238;2023-08-31T00:42:48;22.50;99.90
38784;DHT22;24531;45.502;12.238;2023-08-31T00:45:14;22.50;99.90
38784;DHT22;24531;45.502;12.238;2023-08-31T00:47:39;22.50;99.90
38784;DHT22;24531;45.502;12.238;2023-08-31T00:50:06;22.50;99.90
38784;DHT22;24531;45.502;12.238;2023-08-31T00:52:33;22.50;99.90
38784;DHT22;24531;45.502;12.238;2023-08-31T00:55:00;22.50;99.90
38784;DHT22;24531;45.502;12.238;2023-08-31T00:57:30;22.50;99.90
38784;DHT22;24531;45.502;12.238;2023-08-31T00:59:56;22.40;99.90
38784;DHT22;24531;45.502;12.238;2023-08-31T01:02:37;22.40;99.90
38784;DHT22;24531;45.502;12.238;2023-08-31T01:05:29;22.40;99.90
38784;DHT22;24531;45.502;12.238;2023-08-31T01:13:15;22.50;99.90
38784;DHT22;24531;45.502;12.238;2023-08-31T01:15:46;22.50;99.90
38784;DHT22;24531;45.502;12.238;2023-08-31T01:18:16;22.50;99.90
38784;DHT22;24531;45.502;12.238;2023-08-31T01:20:55;22.50;99.90
38784;DHT22;24531;45.502;12.238;2023-08-31T01:23:28;22.50;99.90
38784;DHT22;24531;45.502;12.238;2023-08-31T01:25:54;22.50;99.90
38784;DHT22;24531;45.502;12.238;2023-08-31T01:28:20;22.50;99.90
38784;DHT22;24531;45.502;12.238;2023-08-31T01:30:45;22.50;99.90
38784;DHT22;24531;45.502;12.238;2023-08-31T01:33:11;22.50;99.90
38784;DHT22;24531;45.502;12.238;2023-08-31T01:35:45;22.40;99.90
38784;DHT22;24531;45.502;12.238;2023-08-31T01:38:14;22.40;99.90
38784;DHT22;24531;45.502;12.238;2023-08-31T01:40:51;22.40;99.90
38784;DHT22;24531;45.502;12.238;2023-08-31T01:43:20;22.40;99.90
38784;DHT22;24531;45.502;12.238;2023-08-31T01:45:47;22.40;99.90
38784;DHT22;24531;45.502;12.238;2023-08-31T01:48:16;22.40;99.90
38784;DHT22;24531;45.502;12.238;2023-08-31T01:50:42;22.40;99.90
38784;DHT22;24531;45.502;12.238;2023-08-31T01:53:07;22.40;99.90
38784;DHT22;24531;45.502;12.238;2023-08-31T01:55:33;22.40;99.90
38784;DHT22;24531;45.502;12.238;2023-08-31T01:57:59;22.30;99.90
38784;DHT22;24531;45.502;12.238;2023-08-31T02:00:25;22.30;99.90
38784;DHT22;24531;45.502;12.238;2023-08-31T02:02:51;22.30;99.90
38784;DHT22;24531;45.502;12.238;2023-08-31T02:05:17;22.30;99.90
38784;DHT22;24531;45.502;12.238;2023-08-31T02:07:43;22.30;99.90
38784;DHT22;24531;45.502;12.238;2023-08-31T02:10:08;22.30;99.90
38784;DHT22;24531;45.502;12.238;2023-08-31T02:12:34;22.30;99.90
38784;DHT22;24531;45.502;12.238;2023-08-31T02:15:06;22.30;99.90
38784;DHT22;24531;45.502;12.238;2023-08-31T02:17:35;22.20;99.90
38784;DHT22;24531;45.502;12.238;2023-08-31T02:20:02;22.30;99.90
38784;DHT22;24531;45.502;12.238;2023-08-31T02:22:34;22.30;99.90
38784;DHT22;24531;45.502;12.238;2023-08-31T02:25:00;22.30;99.90
38784;DHT22;24531;45.502;12.238;2023-08-31T02:27:26;22.30;99.90
38784;DHT22;24531;45.502;12.238;2023-08-31T02:29:52;22.30;99.90
38784;DHT22;24531;45.502;12.238;2023-08-31T02:32:18;22.30;99.90
38784;DHT22;24531;45.502;12.238;2023-08-31T02:34:43;22.20;99.90
38784;DHT22;24531;45.502;12.238;2023-08-31T02:37:09;22.20;99.90
38784;DHT22;24531;45.502;12.238;2023-08-31T02:39:35;22.20;99.90
38784;DHT22;24531;45.502;12.238;2023-08-31T02:42:00;22.10;99.90
38784;DHT22;24531;45.502;12.238;2023-08-31T02:44:26;22.10;99.90
38784;DHT22;24531;45.502;12.238;2023-08-31T02:46:51;22.00;99.90
38784;DHT22;24531;45.502;12.238;2023-08-31T02:49:17;22.00;99.90
38784;DHT22;24531;45.502;12.238;2023-08-31T02:51:42;22.00;99.90
38784;DHT22;24531;45.502;12.238;2023-08-31T02:54:08;21.90;99.90
38784;DHT22;24531;45.502;12.238;2023-08-31T02:56:33;22.00;99.90
38784;DHT22;24531;45.502;12.238;2023-08-31T02:58:59;21.90;99.90
38784;DHT22;24531;45.502;12.238;2023-08-31T03:01:25;21.90;99.90
38784;DHT22;24531;45.502;12.238;2023-08-31T03:03:50;21.80;99.90
38784;DHT22;24531;45.502;12.238;2023-08-31T03:06:16;21.80;99.90
38784;DHT22;24531;45.502;12.238;2023-08-31T03:08:42;21.80;99.90
38784;DHT22;24531;45.502;12.238;2023-08-31T03:11:07;21.80;99.90
38784;DHT22;24531;45.502;12.238;2023-08-31T03:13:33;21.80;99.90
38784;DHT22;24531;45.502;12.238;2023-08-31T03:15:59;21.80;99.90
38784;DHT22;24531;45.502;12.238;2023-08-31T03:18:25;21.80;99.90
38784;DHT22;24531;45.502;12.238;2023-08-31T03:20:51;21.80;99.90
38784;DHT22;24531;45.502;12.238;2023-08-31T03:23:17;21.80;99.90
38784;DHT22;24531;45.502;12.238;2023-08-31T03:25:42;21.70;99.90
38784;DHT22;24531;45.502;12.238;2023-08-31T03:28:08;21.70;99.90
38784;DHT22;24531;45.502;12.238;2023-08-31T03:30:35;21.70;99.90
38784;DHT22;24531;45.502;12.238;2023-08-31T03:33:00;21.60;99.90
38784;DHT22;24531;45.502;12.238;2023-08-31T03:35:26;21.60;99.90
38784;DHT22;24531;45.502;12.238;2023-08-31T03:37:55;21.60;99.90
38784;DHT22;24531;45.502;12.238;2023-08-31T03:40:21;21.60;99.90
38784;DHT22;24531;45.502;12.238;2023-08-31T03:42:49;21.70;99.90
38784;DHT22;24531;45.502;12.238;2023-08-31T03:45:14;21.70;99.90
38784;DHT22;24531;45.502;12.238;2023-08-31T03:47:40;21.70;99.90
38784;DHT22;24531;45.502;12.238;2023-08-31T03:50:06;21.60;99.90
38784;DHT22;24531;45.502;12.238;2023-08-31T03:52:32;21.60;99.90
38784;DHT22;24531;45.502;12.238;2023-08-31T03:54:57;21.60;99.90
38784;DHT22;24531;45.502;12.238;2023-08-31T03:57:23;21.60;99.90
38784;DHT22;24531;45.502;12.238;2023-08-31T03:59:49;21.50;99.90
38784;DHT22;24531;45.502;12.238;2023-08-31T04:02:14;21.50;99.90
38784;DHT22;24531;45.502;12.238;2023-08-31T04:04:40;21.40;99.90
38784;DHT22;24531;45.502;12.238;2023-08-31T04:07:06;21.40;99.90
38784;DHT22;24531;45.502;12.238;2023-08-31T04:09:32;21.40;99.90
38784;DHT22;24531;45.502;12.238;2023-08-31T04:11:57;21.30;99.90
38784;DHT22;24531;45.502;12.238;2023-08-31T04:14:23;21.40;99.90
38784;DHT22;24531;45.502;12.238;2023-08-31T04:16:51;21.40;99.90
38784;DHT22;24531;45.502;12.238;2023-08-31T04:19:17;21.40;99.90
38784;DHT22;24531;45.502;12.238;2023-08-31T04:21:43;21.40;99.90
38784;DHT22;24531;45.502;12.238;2023-08-31T04:24:09;21.30;99.90
38784;DHT22;24531;45.502;12.238;2023-08-31T04:26:35;21.30;99.90
38784;DHT22;24531;45.502;12.238;2023-08-31T04:29:02;21.30;99.90
38784;DHT22;24531;45.502;12.238;2023-08-31T04:31:28;21.20;99.90
38784;DHT22;24531;45.502;12.238;2023-08-31T04:33:54;21.30;99.90
38784;DHT22;24531;45.502;12.238;2023-08-31T04:36:21;21.30;99.90
38784;DHT22;24531;45.502;12.238;2023-08-31T04:38:48;21.30;99.90
38784;DHT22;24531;45.502;12.238;2023-08-31T04:41:14;21.40;99.90
38784;DHT22;24531;45.502;12.238;2023-08-31T04:43:40;21.40;99.90
38784;DHT22;24531;45.502;12.238;2023-08-31T04:46:06;21.40;99.90
38784;DHT22;24531;45.502;12.238;2023-08-31T04:48:32;21.40;99.90
38784;DHT22;24531;45.502;12.238;2023-08-31T04:50:58;21.40;99.90
38784;DHT22;24531;45.502;12.238;2023-08-31T04:53:23;21.50;99.90
38784;DHT22;24531;45.502;12.238;2023-08-31T04:55:49;21.50;99.90
38784;DHT22;24531;45.502;12.238;2023-08-31T04:58:15;21.50;99.90
38784;DHT22;24531;45.502;12.238;2023-08-31T05:00:40;21.50;99.90
38784;DHT22;24531;45.502;12.238;2023-08-31T05:03:06;21.50;99.90
38784;DHT22;24531;45.502;12.238;2023-08-31T05:05:32;21.50;99.90
38784;DHT22;24531;45.502;12.238;2023-08-31T05:07:57;21.50;99.90
38784;DHT22;24531;45.502;12.238;2023-08-31T05:10:24;21.40;99.90
38784;DHT22;24531;45.502;12.238;2023-08-31T05:12:50;21.40;99.90
38784;DHT22;24531;45.502;12.238;2023-08-31T05:15:15;21.40;99.90
38784;DHT22;24531;45.502;12.238;2023-08-31T05:17:41;21.40;99.90
38784;DHT22;24531;45.502;12.238;2023-08-31T05:20:07;21.50;99.90
38784;DHT22;24531;45.502;12.238;2023-08-31T05:22:35;21.40;99.90
38784;DHT22;24531;45.502;12.238;2023-08-31T05:25:01;21.50;99.90
38784;DHT22;24531;45.502;12.238;2023-08-31T05:27:26;21.50;99.90
38784;DHT22;24531;45.502;12.238;2023-08-31T05:29:52;21.50;99.90
38784;DHT22;24531;45.502;12.238;2023-08-31T05:32:17;21.60;99.90
38784;DHT22;24531;45.502;12.238;2023-08-31T05:34:43;21.60;99.90
38784;DHT22;24531;45.502;12.238;2023-08-31T05:37:09;21.60;99.90
38784;DHT22;24531;45.502;12.238;2023-08-31T05:39:34;21.60;99.90
38784;DHT22;24531;45.502;12.238;2023-08-31T05:42:00;21.70;99.90
38784;DHT22;24531;45.502;12.238;2023-08-31T05:44:26;21.70;99.90
38784;DHT22;24531;45.502;12.238;2023-08-31T05:46:52;21.70;99.90
38784;DHT22;24531;45.502;12.238;2023-08-31T05:49:17;21.70;99.90
38784;DHT22;24531;45.502;12.238;2023-08-31T05:51:43;21.80;99.90
38784;DHT22;24531;45.502;12.238;2023-08-31T05:54:08;21.80;99.90
38784;DHT22;24531;45.502;12.238;2023-08-31T05:56:38;21.80;99.90
38784;DHT22;24531;45.502;12.238;2023-08-31T05:59:05;21.90;99.90
38784;DHT22;24531;45.502;12.238;2023-08-31T06:01:31;22.00;99.90
38784;DHT22;24531;45.502;12.238;2023-08-31T06:03:57;22.10;99.90
38784;DHT22;24531;45.502;12.238;2023-08-31T06:06:22;22.20;99.90
38784;DHT22;24531;45.502;12.238;2023-08-31T06:08:48;22.20;99.90
38784;DHT22;24531;45.502;12.238;2023-08-31T06:11:14;22.20;99.90
38784;DHT22;24531;45.502;12.238;2023-08-31T06:13:40;22.20;99.90
38784;DHT22;24531;45.502;12.238;2023-08-31T06:16:05;22.30;99.90
38784;DHT22;24531;45.502;12.238;2023-08-31T06:18:31;22.30;99.90
38784;DHT22;24531;45.502;12.238;2023-08-31T06:20:57;22.20;99.90
38784;DHT22;24531;45.502;12.238;2023-08-31T06:23:22;22.30;99.90
38784;DHT22;24531;45.502;12.238;2023-08-31T06:25:48;22.30;99.90
38784;DHT22;24531;45.502;12.238;2023-08-31T06:28:13;22.40;99.90
38784;DHT22;24531;45.502;12.238;2023-08-31T06:30:40;22.40;99.90
38784;DHT22;24531;45.502;12.238;2023-08-31T06:33:12;22.50;99.90
38784;DHT22;24531;45.502;12.238;2023-08-31T06:35:37;22.70;99.90
38784;DHT22;24531;45.502;12.238;2023-08-31T06:38:03;22.80;99.90
38784;DHT22;24531;45.502;12.238;2023-08-31T06:40:28;22.90;99.90
38784;DHT22;24531;45.502;12.238;2023-08-31T06:42:54;23.00;99.90
38784;DHT22;24531;45.502;12.238;2023-08-31T06:45:20;23.10;99.90
38784;DHT22;24531;45.502;12.238;2023-08-31T06:47:45;23.20;99.90
38784;DHT22;24531;45.502;12.238;2023-08-31T06:50:11;23.30;99.90
38784;DHT22;24531;45.502;12.238;2023-08-31T06:52:36;23.40;99.90
38784;DHT22;24531;45.502;12.238;2023-08-31T06:55:02;23.60;99.90
38784;DHT22;24531;45.502;12.238;2023-08-31T06:57:28;23.70;99.90
38784;DHT22;24531;45.502;12.238;2023-08-31T06:59:54;23.70;99.90
38784;DHT22;24531;45.502;12.238;2023-08-31T07:02:20;23.70;99.90
38784;DHT22;24531;45.502;12.238;2023-08-31T07:04:47;23.80;99.90
38784;DHT22;24531;45.502;12.238;2023-08-31T07:07:14;23.90;99.90
38784;DHT22;24531;45.502;12.238;2023-08-31T07:09:42;24.00;99.90
38784;DHT22;24531;45.502;12.238;2023-08-31T07:12:07;24.00;99.90
38784;DHT22;24531;45.502;12.238;2023-08-31T07:16:59;23.60;99.90
38784;DHT22;24531;45.502;12.238;2023-08-31T07:19:25;24.50;99.90
38784;DHT22;24531;45.502;12.238;2023-08-31T07:21:50;24.70;99.90
38784;DHT22;24531;45.502;12.238;2023-08-31T07:24:16;24.90;99.80
38784;DHT22;24531;45.502;12.238;2023-08-31T07:26:42;25.00;99.60
38784;DHT22;24531;45.502;12.238;2023-08-31T07:29:07;25.10;99.50
38784;DHT22;24531;45.502;12.238;2023-08-31T07:31:34;25.20;99.30
38784;DHT22;24531;45.502;12.238;2023-08-31T07:33:59;25.20;99.20
38784;DHT22;24531;45.502;12.238;2023-08-31T07:36:25;25.40;98.90
38784;DHT22;24531;45.502;12.238;2023-08-31T07:38:51;25.60;98.70
38784;DHT22;24531;45.502;12.238;2023-08-31T07:41:16;25.80;98.50
38784;DHT22;24531;45.502;12.238;2023-08-31T07:43:42;26.00;98.30
38784;DHT22;24531;45.502;12.238;2023-08-31T07:46:07;26.20;98.10
38784;DHT22;24531;45.502;12.238;2023-08-31T07:48:33;26.40;97.70
38784;DHT22;24531;45.502;12.238;2023-08-31T07:50:59;26.40;97.40
38784;DHT22;24531;45.502;12.238;2023-08-31T07:53:24;26.30;97.20
38784;DHT22;24531;45.502;12.238;2023-08-31T07:55:54;26.30;97.20
38784;DHT22;24531;45.502;12.238;2023-08-31T07:58:23;26.40;97.10
38784;DHT22;24531;45.502;12.238;2023-08-31T08:00:51;26.70;97.00
38784;DHT22;24531;45.502;12.238;2023-08-31T08:03:17;26.80;96.80
38784;DHT22;24531;45.502;12.238;2023-08-31T08:05:43;27.00;96.50
38784;DHT22;24531;45.502;12.238;2023-08-31T08:08:09;27.30;96.30
38784;DHT22;24531;45.502;12.238;2023-08-31T08:10:35;27.50;96.00
38784;DHT22;24531;45.502;12.238;2023-08-31T08:13:00;27.70;95.50
38784;DHT22;24531;45.502;12.238;2023-08-31T08:15:26;27.80;95.30
38784;DHT22;24531;45.502;12.238;2023-08-31T08:17:52;27.90;95.30
38784;DHT22;24531;45.502;12.238;2023-08-31T08:20:19;28.20;95.00
38784;DHT22;24531;45.502;12.238;2023-08-31T08:22:45;28.40;94.60
38784;DHT22;24531;45.502;12.238;2023-08-31T08:25:10;28.70;94.40
38784;DHT22;24531;45.502;12.238;2023-08-31T08:27:36;28.90;94.10
38784;DHT22;24531;45.502;12.238;2023-08-31T08:30:03;29.20;93.80
38784;DHT22;24531;45.502;12.238;2023-08-31T08:32:28;29.50;93.40
38784;DHT22;24531;45.502;12.238;2023-08-31T08:34:54;29.50;93.10
38784;DHT22;24531;45.502;12.238;2023-08-31T08:37:20;29.30;93.00
38784;DHT22;24531;45.502;12.238;2023-08-31T08:39:49;29.40;93.10
38784;DHT22;24531;45.502;12.238;2023-08-31T08:42:18;29.70;92.90
38784;DHT22;24531;45.502;12.238;2023-08-31T08:44:44;30.20;92.70
38784;DHT22;24531;45.502;12.238;2023-08-31T08:47:11;30.70;92.30
38784;DHT22;24531;45.502;12.238;2023-08-31T08:49:37;31.30;91.70
38784;DHT22;24531;45.502;12.238;2023-08-31T08:52:03;31.50;90.90
38784;DHT22;24531;45.502;12.238;2023-08-31T08:54:28;31.40;90.40
38784;DHT22;24531;45.502;12.238;2023-08-31T08:56:54;31.30;90.10
38784;DHT22;24531;45.502;12.238;2023-08-31T08:59:20;31.00;89.90
38784;DHT22;24531;45.502;12.238;2023-08-31T09:01:46;30.90;90.10
38784;DHT22;24531;45.502;12.238;2023-08-31T09:04:11;30.70;89.50
38784;DHT22;24531;45.502;12.238;2023-08-31T09:06:38;30.50;89.40
38784;DHT22;24531;45.502;12.238;2023-08-31T09:09:04;30.20;89.70
38784;DHT22;24531;45.502;12.238;2023-08-31T09:11:30;30.00;90.10
38784;DHT22;24531;45.502;12.238;2023-08-31T09:13:57;29.90;90.30
38784;DHT22;24531;45.502;12.238;2023-08-31T09:16:30;29.90;90.60
38784;DHT22;24531;45.502;12.238;2023-08-31T09:18:59;30.60;90.30
38784;DHT22;24531;45.502;12.238;2023-08-31T09:21:37;30.90;89.90
38784;DHT22;24531;45.502;12.238;2023-08-31T09:24:06;31.50;89.50
38784;DHT22;24531;45.502;12.238;2023-08-31T09:26:38;32.30;87.90
38784;DHT22;24531;45.502;12.238;2023-08-31T09:29:05;32.80;86.70
38784;DHT22;24531;45.502;12.238;2023-08-31T09:31:31;33.20;85.20
38784;DHT22;24531;45.502;12.238;2023-08-31T09:33:56;32.80;84.30
38784;DHT22;24531;45.502;12.238;2023-08-31T09:36:22;32.20;84.30
38784;DHT22;24531;45.502;12.238;2023-08-31T09:38:48;31.80;84.30
38784;DHT22;24531;45.502;12.238;2023-08-31T09:41:14;31.50;84.30
38784;DHT22;24531;45.502;12.238;2023-08-31T09:43:41;31.30;83.90
38784;DHT22;24531;45.502;12.238;2023-08-31T09:46:07;31.40;84.60
38784;DHT22;24531;45.502;12.238;2023-08-31T09:48:35;32.00;84.90
38784;DHT22;24531;45.502;12.238;2023-08-31T09:51:04;32.80;83.20
38784;DHT22;24531;45.502;12.238;2023-08-31T09:53:31;32.80;81.40
38784;DHT22;24531;45.502;12.238;2023-08-31T09:55:57;32.70;81.00
38784;DHT22;24531;45.502;12.238;2023-08-31T09:58:23;32.80;81.20
38784;DHT22;24531;45.502;12.238;2023-08-31T10:00:50;33.20;80.20
38784;DHT22;24531;45.502;12.238;2023-08-31T10:03:16;32.70;78.80
38784;DHT22;24531;45.502;12.238;2023-08-31T10:05:47;32.00;79.00
38784;DHT22;24531;45.502;12.238;2023-08-31T10:08:14;31.50;80.50
38784;DHT22;24531;45.502;12.238;2023-08-31T10:10:41;31.10;80.70
38784;DHT22;24531;45.502;12.238;2023-08-31T10:13:07;30.60;80.30
38784;DHT22;24531;45.502;12.238;2023-08-31T10:15:36;30.20;81.40
38784;DHT22;24531;45.502;12.238;2023-08-31T10:18:04;30.10;81.90
38784;DHT22;24531;45.502;12.238;2023-08-31T10:20:30;30.00;82.20
38784;DHT22;24531;45.502;12.238;2023-08-31T10:23:05;29.90;82.30
38784;DHT22;24531;45.502;12.238;2023-08-31T10:28:26;29.70;82.90
38784;DHT22;24531;45.502;12.238;2023-08-31T10:31:29;29.70;83.80
38784;DHT22;24531;45.502;12.238;2023-08-31T10:34:00;30.00;83.90
38784;DHT22;24531;45.502;12.238;2023-08-31T10:36:41;30.10;83.70
38784;DHT22;24531;45.502;12.238;2023-08-31T10:39:18;29.90;83.20
38784;DHT22;24531;45.502;12.238;2023-08-31T10:41:55;29.90;83.60
38784;DHT22;24531;45.502;12.238;2023-08-31T10:44:25;29.90;84.00
38784;DHT22;24531;45.502;12.238;2023-08-31T10:46:51;29.90;83.60
38784;DHT22;24531;45.502;12.238;2023-08-31T10:49:21;29.70;83.40
38784;DHT22;24531;45.502;12.238;2023-08-31T10:51:54;29.40;83.60
38784;DHT22;24531;45.502;12.238;2023-08-31T10:54:27;29.30;84.10
38784;DHT22;24531;45.502;12.238;2023-08-31T10:59:26;29.00;84.50
38784;DHT22;24531;45.502;12.238;2023-08-31T11:01:59;28.80;84.90
38784;DHT22;24531;45.502;12.238;2023-08-31T11:04:27;28.60;85.30
38784;DHT22;24531;45.502;12.238;2023-08-31T11:07:16;28.60;86.00
38784;DHT22;24531;45.502;12.238;2023-08-31T11:09:43;28.70;85.50
38784;DHT22;24531;45.502;12.238;2023-08-31T11:12:09;28.50;85.40
38784;DHT22;24531;45.502;12.238;2023-08-31T11:14:35;28.40;85.40
38784;DHT22;24531;45.502;12.238;2023-08-31T11:17:01;28.30;85.40
38784;DHT22;24531;45.502;12.238;2023-08-31T11:19:28;28.20;85.60
38784;DHT22;24531;45.502;12.238;2023-08-31T11:21:54;28.00;86.40
38784;DHT22;24531;45.502;12.238;2023-08-31T11:24:20;27.90;87.30
38784;DHT22;24531;45.502;12.238;2023-08-31T11:26:50;27.90;87.80
38784;DHT22;24531;45.502;12.238;2023-08-31T11:29:16;27.90;88.10
38784;DHT22;24531;45.502;12.238;2023-08-31T11:31:42;27.90;88.60
38784;DHT22;24531;45.502;12.238;2023-08-31T11:34:12;28.00;88.60
38784;DHT22;24531;45.502;12.238;2023-08-31T11:36:38;28.00;89.30
38784;DHT22;24531;45.502;12.238;2023-08-31T11:39:07;28.00;89.00
38784;DHT22;24531;45.502;12.238;2023-08-31T11:41:33;27.90;88.80
38784;DHT22;24531;45.502;12.238;2023-08-31T11:44:04;27.90;89.20
38784;DHT22;24531;45.502;12.238;2023-08-31T11:46:30;28.00;89.40
38784;DHT22;24531;45.502;12.238;2023-08-31T11:48:58;28.00;89.60
38784;DHT22;24531;45.502;12.238;2023-08-31T11:51:24;27.90;89.60
38784;DHT22;24531;45.502;12.238;2023-08-31T11:53:50;27.80;89.80
38784;DHT22;24531;45.502;12.238;2023-08-31T11:56:16;27.70;90.00
38784;DHT22;24531;45.502;12.238;2023-08-31T11:58:42;27.60;90.50
38784;DHT22;24531;45.502;12.238;2023-08-31T12:01:08;27.40;90.30
38784;DHT22;24531;45.502;12.238;2023-08-31T12:03:44;27.40;90.40
38784;DHT22;24531;45.502;12.238;2023-08-31T12:06:10;27.40;90.60
38784;DHT22;24531;45.502;12.238;2023-08-31T12:08:37;27.40;90.60
38784;DHT22;24531;45.502;12.238;2023-08-31T12:11:05;27.30;91.00
38784;DHT22;24531;45.502;12.238;2023-08-31T12:13:31;27.30;90.80
38784;DHT22;24531;45.502;12.238;2023-08-31T12:15:57;27.40;91.10
38784;DHT22;24531;45.502;12.238;2023-08-31T12:18:23;27.60;91.20
38784;DHT22;24531;45.502;12.238;2023-08-31T12:20:52;27.90;91.20
38784;DHT22;24531;45.502;12.238;2023-08-31T12:23:18;28.00;90.80
38784;DHT22;24531;45.502;12.238;2023-08-31T12:25:53;28.10;90.60
38784;DHT22;24531;45.502;12.238;2023-08-31T12:28:20;28.20;90.50
38784;DHT22;24531;45.502;12.238;2023-08-31T12:30:52;28.20;90.40
38784;DHT22;24531;45.502;12.238;2023-08-31T12:33:18;28.40;90.30
38784;DHT22;24531;45.502;12.238;2023-08-31T12:35:44;28.40;90.50
38784;DHT22;24531;45.502;12.238;2023-08-31T12:38:11;28.50;90.00
38784;DHT22;24531;45.502;12.238;2023-08-31T12:40:36;28.50;89.80
38784;DHT22;24531;45.502;12.238;2023-08-31T12:43:04;28.50;90.00
38784;DHT22;24531;45.502;12.238;2023-08-31T12:45:30;28.70;90.00
38784;DHT22;24531;45.502;12.238;2023-08-31T12:47:55;28.80;89.40
38784;DHT22;24531;45.502;12.238;2023-08-31T12:50:21;28.80;89.10
38784;DHT22;24531;45.502;12.238;2023-08-31T12:52:47;28.80;89.00
38784;DHT22;24531;45.502;12.238;2023-08-31T12:55:16;28.70;88.50
38784;DHT22;24531;45.502;12.238;2023-08-31T12:57:42;28.80;88.30
38784;DHT22;24531;45.502;12.238;2023-08-31T13:00:09;28.80;88.10
38784;DHT22;24531;45.502;12.238;2023-08-31T13:02:38;28.90;88.00
38784;DHT22;24531;45.502;12.238;2023-08-31T13:05:04;28.90;87.80
38784;DHT22;24531;45.502;12.238;2023-08-31T13:07:31;28.90;87.40
38784;DHT22;24531;45.502;12.238;2023-08-31T13:10:00;29.80;88.10
38784;DHT22;24531;45.502;12.238;2023-08-31T13:12:25;29.00;87.00
38784;DHT22;24531;45.502;12.238;2023-08-31T13:14:51;28.90;86.80
38784;DHT22;24531;45.502;12.238;2023-08-31T13:17:17;28.80;87.10
38784;DHT22;24531;45.502;12.238;2023-08-31T13:19:43;28.80;87.60
38784;DHT22;24531;45.502;12.238;2023-08-31T13:22:08;28.90;87.70
38784;DHT22;24531;45.502;12.238;2023-08-31T13:24:40;29.00;87.80
38784;DHT22;24531;45.502;12.238;2023-08-31T13:27:06;29.10;88.00
38784;DHT22;24531;45.502;12.238;2023-08-31T13:29:31;29.20;87.80
38784;DHT22;24531;45.502;12.238;2023-08-31T13:31:57;29.40;87.50
38784;DHT22;24531;45.502;12.238;2023-08-31T13:34:23;29.40;87.30
38784;DHT22;24531;45.502;12.238;2023-08-31T13:36:48;29.40;87.20
38784;DHT22;24531;45.502;12.238;2023-08-31T13:39:14;29.30;86.70
38784;DHT22;24531;45.502;12.238;2023-08-31T13:41:40;29.30;86.90
38784;DHT22;24531;45.502;12.238;2023-08-31T13:44:06;29.30;86.80
38784;DHT22;24531;45.502;12.238;2023-08-31T13:46:31;29.30;86.80
38784;DHT22;24531;45.502;12.238;2023-08-31T13:48:57;29.20;86.50
38784;DHT22;24531;45.502;12.238;2023-08-31T13:51:22;29.20;86.70
38784;DHT22;24531;45.502;12.238;2023-08-31T13:53:48;29.10;86.70
38784;DHT22;24531;45.502;12.238;2023-08-31T13:56:14;29.10;86.90
38784;DHT22;24531;45.502;12.238;2023-08-31T13:58:39;29.20;87.40
38784;DHT22;24531;45.502;12.238;2023-08-31T14:01:06;29.10;87.20
38784;DHT22;24531;45.502;12.238;2023-08-31T14:03:31;29.20;87.10
38784;DHT22;24531;45.502;12.238;2023-08-31T14:05:57;29.30;87.20
38784;DHT22;24531;45.502;12.238;2023-08-31T14:08:23;29.30;86.60
38784;DHT22;24531;45.502;12.238;2023-08-31T14:10:48;29.30;86.40
38784;DHT22;24531;45.502;12.238;2023-08-31T14:13:14;29.20;85.90
38784;DHT22;24531;45.502;12.238;2023-08-31T14:15:44;29.20;86.30
38784;DHT22;24531;45.502;12.238;2023-08-31T14:18:12;29.30;86.30
38784;DHT22;24531;45.502;12.238;2023-08-31T14:20:38;29.30;86.00
38784;DHT22;24531;45.502;12.238;2023-08-31T14:23:04;29.40;85.90
38784;DHT22;24531;45.502;12.238;2023-08-31T14:25:36;29.30;85.20
38784;DHT22;24531;45.502;12.238;2023-08-31T14:28:04;29.10;85.70
38784;DHT22;24531;45.502;12.238;2023-08-31T14:30:30;29.00;85.80
38784;DHT22;24531;45.502;12.238;2023-08-31T14:32:56;28.90;85.80
38784;DHT22;24531;45.502;12.238;2023-08-31T14:35:22;28.80;86.10
38784;DHT22;24531;45.502;12.238;2023-08-31T14:37:48;28.80;86.00
38784;DHT22;24531;45.502;12.238;2023-08-31T14:40:13;28.90;85.50
38784;DHT22;24531;45.502;12.238;2023-08-31T14:42:40;28.80;85.70
38784;DHT22;24531;45.502;12.238;2023-08-31T14:45:06;28.80;85.70
38784;DHT22;24531;45.502;12.238;2023-08-31T14:47:32;28.80;85.70
38784;DHT22;24531;45.502;12.238;2023-08-31T14:49:58;28.80;85.70
38784;DHT22;24531;45.502;12.238;2023-08-31T14:52:23;28.80;85.40
38784;DHT22;24531;45.502;12.238;2023-08-31T14:54:49;28.80;84.90
38784;DHT22;24531;45.502;12.238;2023-08-31T14:57:15;28.70;84.80
38784;DHT22;24531;45.502;12.238;2023-08-31T14:59:40;28.60;84.90
38784;DHT22;24531;45.502;12.238;2023-08-31T15:02:07;28.50;85.20
38784;DHT22;24531;45.502;12.238;2023-08-31T15:04:33;28.60;85.40
38784;DHT22;24531;45.502;12.238;2023-08-31T15:06:59;28.60;85.50
38784;DHT22;24531;45.502;12.238;2023-08-31T15:09:25;28.70;85.50
38784;DHT22;24531;45.502;12.238;2023-08-31T15:11:51;28.70;85.20
38784;DHT22;24531;45.502;12.238;2023-08-31T15:14:17;28.50;85.70
38784;DHT22;24531;45.502;12.238;2023-08-31T15:16:42;28.50;85.80
38784;DHT22;24531;45.502;12.238;2023-08-31T15:19:08;28.40;85.20
38784;DHT22;24531;45.502;12.238;2023-08-31T15:21:34;28.40;85.10
38784;DHT22;24531;45.502;12.238;2023-08-31T15:24:00;28.30;85.10
38784;DHT22;24531;45.502;12.238;2023-08-31T15:26:26;28.30;85.00